Time;durP1;ratioP1;P1;durP2;ratioP2;P2;SDS_P1;SDS_P2;PMS_P1;PMS_P2;Temp;Humidity;BMP_temperature;BMP_pressure;BME280_temperature;BME280_humidity;BME280_pressure;Samples;Min_cycle;Max_cycle;Signal;HPM_P1;HPM_P2
2024/03/31 00:00:54;;;;;;;;;;;;;;;;;;5095396;28;19924;-79
2024/03/31 00:03:20;;;;;;;;;;;;;;;;;;5096726;28;19912;-81
2024/03/31 00:05:45;;;;;;;;;;;;;;;;;;5088385;28;19997;-81
2024/03/31 00:08:10;;;;;;;;;;;;;;;;;;5095483;28;19915;-81
2024/03/31 00:10:35;;;;;;;;;;;;;;;;;;5096117;28;19908;-81
2024/03/31 00:13:01;;;;;;;;;;;;;;;;;;5095254;28;19908;-79
2024/03/31 00:15:26;;;;;;;;;;;;;;;;;;5096654;28;20321;-79
2024/03/31 00:17:51;;;;;;;;;;;;;;;;;;5097180;28;19924;-79
2024/03/31 00:20:16;;;;;;;;;;;;;;;;;;5096902;28;19909;-81
2024/03/31 00:22:41;;;;;;;;;;;;;;;;;;5096366;28;19945;-79
2024/03/31 00:25:06;;;;;;;;;;;;;;;;;;5096894;28;19923;-79
2024/03/31 00:27:31;;;;;;;;;;;;;;;;;;5095848;28;19908;-80
2024/03/31 00:29:57;;;;;;;;;;;;;;;;;;5096916;28;19908;-80
2024/03/31 00:32:22;;;;;;;;;;;;;;;;;;5096130;28;19965;-79
2024/03/31 00:34:47;;;;;;;;;;;;;;;;;;5096953;28;20359;-81
2024/03/31 00:37:12;;;;;;;;;;;;;;;;;;5096392;28;19912;-81
2024/03/31 00:39:37;;;;;;;;;;;;;;;;;;5078175;28;19908;-81
2024/03/31 00:42:03;;;;;;;;;;;;;;;;;;5077944;28;20002;-80
2024/03/31 00:44:28;;;;;;;;;;;;;;;;;;5096680;28;19963;-78
2024/03/31 00:46:53;;;;;;;;;;;;;;;;;;5095934;28;19908;-81
2024/03/31 00:49:18;;;;;;;;;;;;;;;;;;5095081;28;19908;-80
2024/03/31 00:51:43;;;;;;;;;;;;;;;;;;5096339;28;19981;-81
2024/03/31 00:54:09;;;;;;;;;;;;;;;;;;5094376;28;19912;-80
2024/03/31 00:56:34;;;;;;;;;;;;;;;;;;5096162;28;19923;-81
2024/03/31 00:58:59;;;;;;;;;;;;;;;;;;5081231;28;19954;-81
2024/03/31 01:01:24;;;;;;;;;;;;;;;;;;5095809;28;19994;-80
2024/03/31 01:03:49;;;;;;;;;;;;;;;;;;5096094;28;19952;-80
2024/03/31 01:06:16;;;;;;;;;;;;;;;;;;5096411;28;19915;-80
2024/03/31 01:08:41;;;;;;;;;;;;;;;;;;5077939;28;19912;-79
2024/03/31 01:11:06;;;;;;;;;;;;;;;;;;5077931;28;19991;-80
2024/03/31 01:13:31;;;;;;;;;;;;;;;;;;5078866;28;20004;-79
2024/03/31 01:15:57;;;;;;;;;;;;;;;;;;5096012;28;19909;-81
2024/03/31 01:18:22;;;;;;;;;;;;;;;;;;5096189;28;19912;-80
2024/03/31 01:20:47;;;;;;;;;;;;;;;;;;5094244;28;19914;-81
2024/03/31 01:23:12;;;;;;;;;;;;;;;;;;5094638;28;19999;-81
2024/03/31 01:25:37;;;;;;;;;;;;;;;;;;5095576;28;19923;-80
2024/03/31 01:28:03;;;;;;;;;;;;;;;;;;5095530;28;19987;-79
2024/03/31 01:30:28;;;;;;;;;;;;;;;;;;5095653;28;19908;-78
2024/03/31 01:32:53;;;;;;;;;;;;;;;;;;5092875;28;20366;-81
2024/03/31 01:35:18;;;;;;;;;;;;;;;;;;5077299;28;20366;-80
2024/03/31 01:37:43;;;;;;;;;;;;;;;;;;5095235;28;20437;-81
2024/03/31 01:40:08;;;;;;;;;;;;;;;;;;5095114;28;19965;-81
2024/03/31 01:42:33;;;;;;;;;;;;;;;;;;5093279;28;19908;-81
2024/03/31 01:44:58;;;;;;;;;;;;;;;;;;5095013;28;19915;-80
2024/03/31 01:47:24;;;;;;;;;;;;;;;;;;5084524;28;19924;-81
2024/03/31 01:49:49;;;;;;;;;;;;;;;;;;5095304;28;19908;-81
2024/03/31 01:52:14;;;;;;;;;;;;;;;;;;5094531;28;19998;-80
2024/03/31 01:54:39;;;;;;;;;;;;;;;;;;5093868;28;19974;-79
2024/03/31 01:57:04;;;;;;;;;;;;;;;;;;5095530;28;20296;-80
2024/03/31 01:59:29;;;;;;;;;;;;;;;;;;5093680;28;20318;-81
2024/03/31 02:01:54;;;;;;;;;;;;;;;;;;5093698;28;19909;-81
2024/03/31 02:04:19;;;;;;;;;;;;;;;;;;5093458;28;19908;-80
2024/03/31 02:06:45;;;;;;;;;;;;;;;;;;5093504;28;19908;-81
2024/03/31 02:09:10;;;;;;;;;;;;;;;;;;5094702;28;19908;-81
2024/03/31 02:11:35;;;;;;;;;;;;;;;;;;5094656;28;20298;-81
2024/03/31 02:14:00;;;;;;;;;;;;;;;;;;5095443;28;20308;-79
2024/03/31 02:16:26;;;;;;;;;;;;;;;;;;5089745;28;19938;-80
2024/03/31 02:18:51;;;;;;;;;;;;;;;;;;5077361;28;19916;-80
2024/03/31 02:21:16;;;;;;;;;;;;;;;;;;5076714;28;19909;-79
2024/03/31 02:23:41;;;;;;;;;;;;;;;;;;5094699;28;19939;-80
2024/03/31 02:26:06;;;;;;;;;;;;;;;;;;5095005;28;19923;-78
2024/03/31 02:28:32;;;;;;;;;;;;;;;;;;5093493;28;19909;-80
2024/03/31 02:30:57;;;;;;;;;;;;;;;;;;5079265;28;19912;-80
2024/03/31 02:33:25;;;;;;;;;;;;;;;;;;5095111;28;19908;-80
2024/03/31 02:35:50;;;;;;;;;;;;;;;;;;5092565;28;19948;-79
2024/03/31 02:38:15;;;;;;;;;;;;;;;;;;5093256;28;19924;-79
2024/03/31 02:40:40;;;;;;;;;;;;;;;;;;5092392;28;19912;-81
2024/03/31 02:43:05;;;;;;;;;;;;;;;;;;5091321;28;19918;-79
2024/03/31 02:45:30;;;;;;;;;;;;;;;;;;5093534;28;19908;-78
2024/03/31 02:47:55;;;;;;;;;;;;;;;;;;5095605;28;19916;-79
2024/03/31 02:50:21;;;;;;;;;;;;;;;;;;5096090;28;19908;-79
2024/03/31 02:52:46;;;;;;;;;;;;;;;;;;5095709;28;19912;-79
2024/03/31 02:55:11;;;;;;;;;;;;;;;;;;5094994;28;20038;-79
2024/03/31 02:57:36;;;;;;;;;;;;;;;;;;5095901;28;20003;-80
2024/03/31 03:00:01;;;;;;;;;;;;;;;;;;5077793;28;20393;-78
2024/03/31 03:02:26;;;;;;;;;;;;;;;;;;5095815;28;20370;-79
2024/03/31 03:04:51;;;;;;;;;;;;;;;;;;5096224;28;19995;-78
2024/03/31 03:07:17;;;;;;;;;;;;;;;;;;5078439;28;20374;-79
2024/03/31 03:09:42;;;;;;;;;;;;;;;;;;5095337;28;19912;-79
2024/03/31 03:12:07;;;;;;;;;;;;;;;;;;5095864;28;19914;-79
2024/03/31 03:14:32;;;;;;;;;;;;;;;;;;5096385;28;19996;-79
2024/03/31 03:16:57;;;;;;;;;;;;;;;;;;5095026;28;19912;-79
2024/03/31 03:19:22;;;;;;;;;;;;;;;;;;5095678;28;19909;-80
2024/03/31 03:21:47;;;;;;;;;;;;;;;;;;5096588;28;19915;-80
2024/03/31 03:24:13;;;;;;;;;;;;;;;;;;5096700;28;19912;-80
2024/03/31 03:26:38;;;;;;;;;;;;;;;;;;5095142;28;19912;-81
2024/03/31 03:29:03;;;;;;;;;;;;;;;;;;5096930;28;19915;-79
2024/03/31 03:31:28;;;;;;;;;;;;;;;;;;5096469;28;19908;-80
2024/03/31 03:33:53;;;;;;;;;;;;;;;;;;5097966;28;19908;-81
2024/03/31 03:36:18;;;;;;;;;;;;;;;;;;5086865;28;19998;-81
2024/03/31 03:38:44;;;;;;;;;;;;;;;;;;5097142;28;19919;-80
2024/03/31 03:41:09;;;;;;;;;;;;;;;;;;5095807;28;19908;-80
2024/03/31 03:43:35;;;;;;;;;;;;;;;;;;5097297;28;19960;-79
2024/03/31 03:46:00;;;;;;;;;;;;;;;;;;5096746;28;19962;-81
2024/03/31 03:48:25;;;;;;;;;;;;;;;;;;5095560;28;19911;-78
2024/03/31 03:50:50;;;;;;;;;;;;;;;;;;5096557;28;19912;-79
2024/03/31 03:53:15;;;;;;;;;;;;;;;;;;5096219;28;20007;-79
2024/03/31 03:55:40;;;;;;;;;;;;;;;;;;5096610;28;19962;-79
2024/03/31 03:58:06;;;;;;;;;;;;;;;;;;5077998;28;19916;-78
2024/03/31 04:00:31;;;;;;;;;;;;;;;;;;5095163;28;19912;-79
2024/03/31 04:02:56;;;;;;;;;;;;;;;;;;5096219;28;19908;-80
2024/03/31 04:05:21;;;;;;;;;;;;;;;;;;5097694;28;19961;-81
2024/03/31 04:07:46;;;;;;;;;;;;;;;;;;5097704;28;19908;-79
2024/03/31 04:10:11;;;;;;;;;;;;;;;;;;5097417;28;19947;-81
2024/03/31 04:12:36;;;;;;;;;;;;;;;;;;5095477;28;19915;-80
2024/03/31 04:15:02;;;;;;;;;;;;;;;;;;5095634;28;19908;-80
2024/03/31 04:17:27;;;;;;;;;;;;;;;;;;5096346;28;19919;-81
2024/03/31 04:19:52;;;;;;;;;;;;;;;;;;5095712;28;19908;-81
2024/03/31 04:22:18;;;;;;;;;;;;;;;;;;5095280;28;20394;-81
2024/03/31 04:24:43;;;;;;;;;;;;;;;;;;5096495;28;19916;-81
2024/03/31 04:27:08;;;;;;;;;;;;;;;;;;5096739;28;19916;-80
2024/03/31 04:29:33;;;;;;;;;;;;;;;;;;5095270;28;20328;-80
2024/03/31 04:31:58;;;;;;;;;;;;;;;;;;5095263;28;19915;-81
2024/03/31 04:34:23;;;;;;;;;;;;;;;;;;5095848;28;19909;-79
2024/03/31 04:36:49;;;;;;;;;;;;;;;;;;5095699;28;19954;-79
2024/03/31 04:39:14;;;;;;;;;;;;;;;;;;5094265;28;20003;-79
2024/03/31 04:41:39;;;;;;;;;;;;;;;;;;5082957;28;19908;-78
2024/03/31 04:44:04;;;;;;;;;;;;;;;;;;5076558;28;19915;-81
2024/03/31 04:46:29;;;;;;;;;;;;;;;;;;5093937;28;19908;-79
2024/03/31 04:48:54;;;;;;;;;;;;;;;;;;5095550;28;20435;-80
2024/03/31 04:51:20;;;;;;;;;;;;;;;;;;5094416;28;20378;-79
2024/03/31 04:53:45;;;;;;;;;;;;;;;;;;5094658;28;19965;-81
2024/03/31 04:56:10;;;;;;;;;;;;;;;;;;5094396;28;19908;-81
2024/03/31 04:58:35;;;;;;;;;;;;;;;;;;5095709;28;20266;-81
2024/03/31 05:01:00;;;;;;;;;;;;;;;;;;5095303;28;19908;-81
2024/03/31 05:03:26;;;;;;;;;;;;;;;;;;5094510;28;19931;-81
2024/03/31 05:05:51;;;;;;;;;;;;;;;;;;5096437;28;20378;-79
2024/03/31 05:08:16;;;;;;;;;;;;;;;;;;5094723;28;19970;-79
2024/03/31 05:10:41;;;;;;;;;;;;;;;;;;5095767;28;19953;-81
2024/03/31 05:13:06;;;;;;;;;;;;;;;;;;5094572;28;19908;-80
2024/03/31 05:15:31;;;;;;;;;;;;;;;;;;5095114;28;19908;-81
2024/03/31 05:17:56;;;;;;;;;;;;;;;;;;5094609;28;20019;-78
2024/03/31 05:20:22;;;;;;;;;;;;;;;;;;5094894;28;19943;-81
2024/03/31 05:22:47;;;;;;;;;;;;;;;;;;5094438;28;19908;-79
2024/03/31 05:25:12;;;;;;;;;;;;;;;;;;5093610;28;19970;-79
2024/03/31 05:27:37;;;;;;;;;;;;;;;;;;5094694;28;19908;-79
2024/03/31 05:30:02;;;;;;;;;;;;;;;;;;5094534;28;19908;-79
2024/03/31 05:32:27;;;;;;;;;;;;;;;;;;5093309;28;20036;-79
2024/03/31 05:34:52;;;;;;;;;;;;;;;;;;5095193;28;19908;-79
2024/03/31 05:37:17;;;;;;;;;;;;;;;;;;5094631;28;19912;-78
2024/03/31 05:39:43;;;;;;;;;;;;;;;;;;5094919;28;19954;-80
2024/03/31 05:42:08;;;;;;;;;;;;;;;;;;5093266;28;19908;-78
2024/03/31 05:44:33;;;;;;;;;;;;;;;;;;5093609;28;19955;-79
2024/03/31 05:46:58;;;;;;;;;;;;;;;;;;5093242;28;19912;-79
2024/03/31 05:49:23;;;;;;;;;;;;;;;;;;5093719;28;19915;-79
2024/03/31 05:51:48;;;;;;;;;;;;;;;;;;5093344;28;19915;-80
2024/03/31 05:54:14;;;;;;;;;;;;;;;;;;5095483;28;19954;-81
2024/03/31 05:56:40;;;;;;;;;;;;;;;;;;5095878;28;19959;-80
2024/03/31 05:59:05;;;;;;;;;;;;;;;;;;5091979;28;19908;-79
2024/03/31 06:01:30;;;;;;;;;;;;;;;;;;5081135;28;19908;-79
2024/03/31 06:03:55;;;;;;;;;;;;;;;;;;5091916;28;19909;-80
2024/03/31 06:06:20;;;;;;;;;;;;;;;;;;5094914;28;19931;-79
2024/03/31 06:08:45;;;;;;;;;;;;;;;;;;5096072;28;20042;-81
2024/03/31 06:11:10;;;;;;;;;;;;;;;;;;5095278;28;19935;-79
2024/03/31 06:13:35;;;;;;;;;;;;;;;;;;5094729;28;19912;-80
2024/03/31 06:16:01;;;;;;;;;;;;;;;;;;5094389;28;19914;-80
2024/03/31 06:18:26;;;;;;;;;;;;;;;;;;5094384;28;19920;-81
2024/03/31 06:20:51;;;;;;;;;;;;;;;;;;5096062;28;20045;-78
2024/03/31 06:23:16;;;;;;;;;;;;;;;;;;5096171;28;20358;-79
2024/03/31 06:25:41;;;;;;;;;;;;;;;;;;5096485;28;19920;-79
2024/03/31 06:28:06;;;;;;;;;;;;;;;;;;5096191;28;20455;-79
2024/03/31 06:30:31;;;;;;;;;;;;;;;;;;5096588;28;20381;-79
2024/03/31 06:32:56;;;;;;;;;;;;;;;;;;5094699;28;20297;-79
2024/03/31 06:35:22;;;;;;;;;;;;;;;;;;5095543;28;20281;-79
2024/03/31 06:37:47;;;;;;;;;;;;;;;;;;5095487;28;19912;-79
2024/03/31 06:40:12;;;;;;;;;;;;;;;;;;5095709;28;19915;-79
2024/03/31 06:42:37;;;;;;;;;;;;;;;;;;5096497;28;19908;-81
2024/03/31 06:45:02;;;;;;;;;;;;;;;;;;5096928;28;19939;-79
2024/03/31 06:47:27;;;;;;;;;;;;;;;;;;5095151;28;19908;-81
2024/03/31 06:49:52;;;;;;;;;;;;;;;;;;5095271;28;19923;-80
2024/03/31 06:52:18;;;;;;;;;;;;;;;;;;5095799;28;20374;-79
2024/03/31 06:54:43;;;;;;;;;;;;;;;;;;5085532;28;19908;-83
2024/03/31 06:57:08;;;;;;;;;;;;;;;;;;5079752;28;20011;-81
2024/03/31 06:59:33;;;;;;;;;;;;;;;;;;5098020;28;19908;-80
2024/03/31 07:01:58;;;;;;;;;;;;;;;;;;5081979;28;19919;-81
2024/03/31 07:04:23;;;;;;;;;;;;;;;;;;5097613;28;19908;-80
2024/03/31 07:06:49;;;;;;;;;;;;;;;;;;5096589;28;19908;-80
2024/03/31 07:09:14;;;;;;;;;;;;;;;;;;5095405;28;19908;-79
2024/03/31 07:11:39;;;;;;;;;;;;;;;;;;5084034;28;19922;-79
2024/03/31 07:14:04;;;;;;;;;;;;;;;;;;5078067;28;19908;-79
2024/03/31 07:16:30;;;;;;;;;;;;;;;;;;5078359;28;19971;-79
2024/03/31 07:18:55;;;;;;;;;;;;;;;;;;5073588;28;19940;-79
2024/03/31 07:21:20;;;;;;;;;;;;;;;;;;5077495;28;19908;-79
2024/03/31 07:23:45;;;;;;;;;;;;;;;;;;5097325;28;19912;-79
2024/03/31 07:26:10;;;;;;;;;;;;;;;;;;5079858;28;19923;-79
2024/03/31 07:28:35;;;;;;;;;;;;;;;;;;5078595;28;19919;-80
2024/03/31 07:31:00;;;;;;;;;;;;;;;;;;5097832;28;19909;-79
2024/03/31 07:33:25;;;;;;;;;;;;;;;;;;5100353;28;19952;-78
2024/03/31 07:35:51;;;;;;;;;;;;;;;;;;5090084;28;19908;-78
2024/03/31 07:38:16;;;;;;;;;;;;;;;;;;5105499;28;20724;-80
2024/03/31 07:40:41;;;;;;;;;;;;;;;;;;5100962;28;20382;-80
2024/03/31 07:43:07;;;;;;;;;;;;;;;;;;5090385;28;20019;-79
2024/03/31 07:45:32;;;;;;;;;;;;;;;;;;5073690;28;20281;-80
2024/03/31 07:47:57;;;;;;;;;;;;;;;;;;5082184;28;20255;-80
2024/03/31 07:50:23;;;;;;;;;;;;;;;;;;5097210;28;19908;-78
2024/03/31 07:52:48;;;;;;;;;;;;;;;;;;5095816;28;19908;-78
2024/03/31 07:55:13;;;;;;;;;;;;;;;;;;5096580;28;19909;-78
2024/03/31 07:57:38;;;;;;;;;;;;;;;;;;5096449;28;19920;-78
2024/03/31 08:00:03;;;;;;;;;;;;;;;;;;5096291;28;19915;-79
2024/03/31 08:02:29;;;;;;;;;;;;;;;;;;5095884;28;19909;-79
2024/03/31 08:04:54;;;;;;;;;;;;;;;;;;5095433;28;19942;-79
2024/03/31 08:07:19;;;;;;;;;;;;;;;;;;5095827;28;19938;-79
2024/03/31 08:09:44;;;;;;;;;;;;;;;;;;5096822;28;19908;-78
2024/03/31 08:12:09;;;;;;;;;;;;;;;;;;5095188;28;19912;-78
2024/03/31 08:14:34;;;;;;;;;;;;;;;;;;5095446;28;19908;-80
2024/03/31 08:16:59;;;;;;;;;;;;;;;;;;5075575;28;19917;-78
2024/03/31 08:19:25;;;;;;;;;;;;;;;;;;5076850;28;19912;-80
2024/03/31 08:21:50;;;;;;;;;;;;;;;;;;5077934;28;19950;-79
2024/03/31 08:24:16;;;;;;;;;;;;;;;;;;5077711;28;20007;-79
2024/03/31 08:26:41;;;;;;;;;;;;;;;;;;5095268;28;19955;-80
2024/03/31 08:29:06;;;;;;;;;;;;;;;;;;5094914;28;19908;-79
2024/03/31 08:31:31;;;;;;;;;;;;;;;;;;5094534;28;20374;-80
2024/03/31 08:33:56;;;;;;;;;;;;;;;;;;5094849;28;20434;-78
2024/03/31 08:36:21;;;;;;;;;;;;;;;;;;5097705;28;19908;-80
2024/03/31 08:38:46;;;;;;;;;;;;;;;;;;5079473;28;20367;-80
2024/03/31 08:41:12;;;;;;;;;;;;;;;;;;5096733;28;20001;-80
2024/03/31 08:43:37;;;;;;;;;;;;;;;;;;5078531;28;20381;-80
2024/03/31 08:46:02;;;;;;;;;;;;;;;;;;5097964;28;19908;-80
2024/03/31 08:48:27;;;;;;;;;;;;;;;;;;5078876;28;19934;-78
2024/03/31 08:50:52;;;;;;;;;;;;;;;;;;5096917;28;19972;-79
2024/03/31 08:53:17;;;;;;;;;;;;;;;;;;5077930;28;20409;-80
2024/03/31 08:55:42;;;;;;;;;;;;;;;;;;5098559;28;19908;-78
2024/03/31 08:58:07;;;;;;;;;;;;;;;;;;5097851;28;19934;-81
2024/03/31 09:00:33;;;;;;;;;;;;;;;;;;5098184;28;19960;-81
2024/03/31 09:02:58;;;;;;;;;;;;;;;;;;5079520;28;19995;-81
2024/03/31 09:05:23;;;;;;;;;;;;;;;;;;5080245;28;19961;-79
2024/03/31 09:07:48;;;;;;;;;;;;;;;;;;5098192;28;19908;-81
2024/03/31 09:10:14;;;;;;;;;;;;;;;;;;5098396;28;19908;-79
2024/03/31 09:12:40;;;;;;;;;;;;;;;;;;5097112;28;19936;-81
2024/03/31 09:15:05;;;;;;;;;;;;;;;;;;5096844;28;19912;-80
2024/03/31 09:17:30;;;;;;;;;;;;;;;;;;5096309;28;19934;-82
2024/03/31 09:19:56;;;;;;;;;;;;;;;;;;5097915;28;19952;-79
2024/03/31 09:22:21;;;;;;;;;;;;;;;;;;5096650;28;19908;-82
2024/03/31 09:24:47;;;;;;;;;;;;;;;;;;5096577;28;19927;-81
2024/03/31 09:27:12;;;;;;;;;;;;;;;;;;5097061;28;19908;-82
2024/03/31 09:29:37;;;;;;;;;;;;;;;;;;5097539;28;19934;-82
2024/03/31 09:32:03;;;;;;;;;;;;;;;;;;5098121;28;19912;-83
2024/03/31 09:34:28;;;;;;;;;;;;;;;;;;5079890;28;19908;-81
2024/03/31 09:36:53;;;;;;;;;;;;;;;;;;5098327;28;19977;-82
2024/03/31 09:39:18;;;;;;;;;;;;;;;;;;5095808;28;19908;-82
2024/03/31 09:41:43;;;;;;;;;;;;;;;;;;5097617;28;19999;-83
2024/03/31 09:44:08;;;;;;;;;;;;;;;;;;5095554;28;19912;-82
2024/03/31 09:46:33;;;;;;;;;;;;;;;;;;5098257;28;19912;-83
2024/03/31 09:48:58;;;;;;;;;;;;;;;;;;5097348;28;19908;-81
2024/03/31 09:51:24;;;;;;;;;;;;;;;;;;5095473;28;19912;-83
2024/03/31 09:53:49;;;;;;;;;;;;;;;;;;5095139;28;19908;-82
2024/03/31 09:56:14;;;;;;;;;;;;;;;;;;5100772;28;19908;-83
2024/03/31 09:58:40;;;;;;;;;;;;;;;;;;5099424;28;20393;-82
2024/03/31 10:01:05;;;;;;;;;;;;;;;;;;5101426;28;19919;-83
2024/03/31 10:03:31;;;;;;;;;;;;;;;;;;5100858;28;20289;-83
2024/03/31 10:05:56;;;;;;;;;;;;;;;;;;5100840;28;19987;-80
2024/03/31 10:08:22;;;;;;;;;;;;;;;;;;5099011;28;19908;-82
2024/03/31 10:10:47;;;;;;;;;;;;;;;;;;5097450;28;20003;-83
2024/03/31 10:13:12;;;;;;;;;;;;;;;;;;5099831;28;19908;-82
2024/03/31 10:15:37;;;;;;;;;;;;;;;;;;5099105;28;20400;-84
2024/03/31 10:18:03;;;;;;;;;;;;;;;;;;5099797;28;20318;-84
2024/03/31 10:20:28;;;;;;;;;;;;;;;;;;5100078;28;19943;-82
2024/03/31 10:22:54;;;;;;;;;;;;;;;;;;5098405;28;19963;-83
2024/03/31 10:25:19;;;;;;;;;;;;;;;;;;5103559;28;19979;-83
2024/03/31 10:27:44;;;;;;;;;;;;;;;;;;5099996;28;20001;-82
2024/03/31 10:30:09;;;;;;;;;;;;;;;;;;5096661;28;20320;-83
2024/03/31 10:32:35;;;;;;;;;;;;;;;;;;5095750;28;19908;-83
2024/03/31 10:35:00;;;;;;;;;;;;;;;;;;5097850;28;19995;-83
2024/03/31 10:37:25;;;;;;;;;;;;;;;;;;5097195;28;19919;-84
2024/03/31 10:39:50;;;;;;;;;;;;;;;;;;5098300;28;19908;-83
2024/03/31 10:42:15;;;;;;;;;;;;;;;;;;5097621;28;19916;-82
2024/03/31 10:44:40;;;;;;;;;;;;;;;;;;5096248;28;19908;-83
2024/03/31 10:47:06;;;;;;;;;;;;;;;;;;5095899;28;19908;-83
2024/03/31 10:49:31;;;;;;;;;;;;;;;;;;5095049;28;19908;-82
2024/03/31 10:51:56;;;;;;;;;;;;;;;;;;5096140;28;20298;-83
2024/03/31 10:54:21;;;;;;;;;;;;;;;;;;5096903;28;19908;-83
2024/03/31 10:56:46;;;;;;;;;;;;;;;;;;5096993;28;20269;-84
2024/03/31 10:59:12;;;;;;;;;;;;;;;;;;5096166;28;19930;-83
2024/03/31 11:01:37;;;;;;;;;;;;;;;;;;5095737;28;19908;-87
2024/03/31 11:04:02;;;;;;;;;;;;;;;;;;5094412;28;20425;-87
2024/03/31 11:06:27;;;;;;;;;;;;;;;;;;5083940;28;19951;-84
2024/03/31 11:08:52;;;;;;;;;;;;;;;;;;5078167;28;20273;-84
2024/03/31 11:11:17;;;;;;;;;;;;;;;;;;5095634;28;19912;-81
2024/03/31 11:13:43;;;;;;;;;;;;;;;;;;5095963;28;20003;-82
2024/03/31 11:16:09;;;;;;;;;;;;;;;;;;5094836;28;19908;-83
2024/03/31 11:18:34;;;;;;;;;;;;;;;;;;5095125;28;19912;-81
2024/03/31 11:20:59;;;;;;;;;;;;;;;;;;5095377;28;19908;-89
2024/03/31 11:23:24;;;;;;;;;;;;;;;;;;5086220;28;20344;-83
2024/03/31 11:25:49;;;;;;;;;;;;;;;;;;5097740;28;19916;-83
2024/03/31 11:28:14;;;;;;;;;;;;;;;;;;5097588;28;20365;-82
2024/03/31 11:30:40;;;;;;;;;;;;;;;;;;5096671;28;19907;-84
2024/03/31 11:33:06;;;;;;;;;;;;;;;;;;5095966;28;19916;-83
2024/03/31 11:35:31;;;;;;;;;;;;;;;;;;5097711;28;20270;-84
2024/03/31 11:37:56;;;;;;;;;;;;;;;;;;5095948;28;20420;-83
2024/03/31 11:40:21;;;;;;;;;;;;;;;;;;5096172;28;19931;-84
2024/03/31 11:42:46;;;;;;;;;;;;;;;;;;5096299;28;19915;-85
2024/03/31 11:45:11;;;;;;;;;;;;;;;;;;5097835;28;19908;-83
2024/03/31 11:47:37;;;;;;;;;;;;;;;;;;5096859;28;19919;-84
2024/03/31 11:50:02;;;;;;;;;;;;;;;;;;5095883;28;19908;-84
2024/03/31 11:52:28;;;;;;;;;;;;;;;;;;5091676;28;19916;-82
2024/03/31 11:54:53;;;;;;;;;;;;;;;;;;5096142;28;19908;-85
2024/03/31 11:57:18;;;;;;;;;;;;;;;;;;5076885;28;20011;-89
2024/03/31 11:59:44;;;;;;;;;;;;;;;;;;5078374;28;20401;-88
2024/03/31 12:02:09;;;;;;;;;;;;;;;;;;5094402;28;19922;-91
2024/03/31 12:04:34;;;;;;;;;;;;;;;;;;5076128;28;19908;-87
2024/03/31 12:06:59;;;;;;;;;;;;;;;;;;5094419;28;20396;-86
2024/03/31 12:09:25;;;;;;;;;;;;;;;;;;5098871;28;20435;-84
2024/03/31 12:11:50;;;;;;;;;;;;;;;;;;5098798;28;20370;-85
2024/03/31 12:14:15;;;;;;;;;;;;;;;;;;5099059;28;19952;-83
2024/03/31 12:16:42;;;;;;;;;;;;;;;;;;5098116;28;19908;-83
2024/03/31 12:19:07;;;;;;;;;;;;;;;;;;5079459;28;19912;-84
2024/03/31 12:21:32;;;;;;;;;;;;;;;;;;5079141;28;19908;-88
2024/03/31 12:23:57;;;;;;;;;;;;;;;;;;5077431;28;19908;-83
2024/03/31 12:26:22;;;;;;;;;;;;;;;;;;5095576;28;19908;-81
2024/03/31 12:28:48;;;;;;;;;;;;;;;;;;5095084;28;19908;-80
2024/03/31 12:31:13;;;;;;;;;;;;;;;;;;5093137;28;19915;-79
2024/03/31 12:33:38;;;;;;;;;;;;;;;;;;5095478;28;19908;-80
2024/03/31 12:36:03;;;;;;;;;;;;;;;;;;5095802;28;19908;-79
2024/03/31 12:38:28;;;;;;;;;;;;;;;;;;5094023;28;19912;-80
2024/03/31 12:40:54;;;;;;;;;;;;;;;;;;5094277;28;19947;-80
2024/03/31 12:43:19;;;;;;;;;;;;;;;;;;5095899;28;19915;-80
2024/03/31 12:45:44;;;;;;;;;;;;;;;;;;5094236;28;19908;-79
2024/03/31 12:48:09;;;;;;;;;;;;;;;;;;5094763;28;19908;-79
2024/03/31 12:50:34;;;;;;;;;;;;;;;;;;5096376;28;19999;-81
2024/03/31 12:52:59;;;;;;;;;;;;;;;;;;5096288;28;19908;-82
2024/03/31 12:55:24;;;;;;;;;;;;;;;;;;5096060;28;19915;-79
2024/03/31 12:57:49;;;;;;;;;;;;;;;;;;5096228;28;19919;-80
2024/03/31 13:00:14;;;;;;;;;;;;;;;;;;5096632;28;20424;-79
2024/03/31 13:02:40;;;;;;;;;;;;;;;;;;5097024;28;19908;-80
2024/03/31 13:05:05;;;;;;;;;;;;;;;;;;5097501;28;20294;-80
2024/03/31 13:07:30;;;;;;;;;;;;;;;;;;5093194;28;20270;-80
2024/03/31 13:09:55;;;;;;;;;;;;;;;;;;5077681;28;20429;-81
2024/03/31 13:12:20;;;;;;;;;;;;;;;;;;5094432;28;19908;-81
2024/03/31 13:14:45;;;;;;;;;;;;;;;;;;5093416;28;19919;-80
2024/03/31 13:17:11;;;;;;;;;;;;;;;;;;5094994;28;19977;-80
2024/03/31 13:19:36;;;;;;;;;;;;;;;;;;5093660;28;19912;-80
2024/03/31 13:22:02;;;;;;;;;;;;;;;;;;5092776;28;19908;-79
2024/03/31 13:24:30;;;;;;;;;;;;;;;;;;5086584;28;19975;-80
2024/03/31 13:26:55;;;;;;;;;;;;;;;;;;5075130;28;19908;-80
2024/03/31 13:29:20;;;;;;;;;;;;;;;;;;5074187;28;20422;-81
2024/03/31 13:31:45;;;;;;;;;;;;;;;;;;5074675;28;19991;-82
2024/03/31 13:34:10;;;;;;;;;;;;;;;;;;5093930;28;19943;-80
2024/03/31 13:36:36;;;;;;;;;;;;;;;;;;5092496;28;19908;-80
2024/03/31 13:39:01;;;;;;;;;;;;;;;;;;5093933;28;19908;-79
2024/03/31 13:41:26;;;;;;;;;;;;;;;;;;5089424;28;20151;-80
2024/03/31 13:43:51;;;;;;;;;;;;;;;;;;5094019;28;19908;-79
2024/03/31 13:46:16;;;;;;;;;;;;;;;;;;5094868;28;19990;-80
2024/03/31 13:48:41;;;;;;;;;;;;;;;;;;5095553;28;19922;-80
2024/03/31 13:51:06;;;;;;;;;;;;;;;;;;5093023;28;19912;-80
2024/03/31 13:53:31;;;;;;;;;;;;;;;;;;5091423;28;19949;-80
2024/03/31 13:55:56;;;;;;;;;;;;;;;;;;5079264;28;19923;-80
2024/03/31 13:58:22;;;;;;;;;;;;;;;;;;5092895;28;19912;-80
2024/03/31 14:00:47;;;;;;;;;;;;;;;;;;5092304;28;19935;-80
2024/03/31 14:03:12;;;;;;;;;;;;;;;;;;5091425;28;19955;-79
2024/03/31 14:05:37;;;;;;;;;;;;;;;;;;5092053;28;19915;-80
2024/03/31 14:08:02;;;;;;;;;;;;;;;;;;5093459;28;19912;-80
2024/03/31 14:10:28;;;;;;;;;;;;;;;;;;5092660;28;20321;-80
2024/03/31 14:12:53;;;;;;;;;;;;;;;;;;5094013;28;19908;-81
2024/03/31 14:15:18;;;;;;;;;;;;;;;;;;5092172;28;19908;-81
2024/03/31 14:17:44;;;;;;;;;;;;;;;;;;5092300;28;19912;-81
2024/03/31 14:20:09;;;;;;;;;;;;;;;;;;5093630;28;20038;-79
2024/03/31 14:22:34;;;;;;;;;;;;;;;;;;5093573;28;20298;-80
2024/03/31 14:24:59;;;;;;;;;;;;;;;;;;5093698;28;19982;-81
2024/03/31 14:27:25;;;;;;;;;;;;;;;;;;5093686;28;19908;-80
2024/03/31 14:29:50;;;;;;;;;;;;;;;;;;5094130;28;19936;-80
2024/03/31 14:32:15;;;;;;;;;;;;;;;;;;5093626;28;19908;-80
2024/03/31 14:34:40;;;;;;;;;;;;;;;;;;5094246;28;19909;-80
2024/03/31 14:37:05;;;;;;;;;;;;;;;;;;5076654;28;19912;-81
2024/03/31 14:39:30;;;;;;;;;;;;;;;;;;5076132;28;19908;-81
2024/03/31 14:41:55;;;;;;;;;;;;;;;;;;5079508;28;19908;-81
2024/03/31 14:44:20;;;;;;;;;;;;;;;;;;5097929;28;19908;-81
2024/03/31 14:46:45;;;;;;;;;;;;;;;;;;5096782;28;19915;-81
2024/03/31 14:49:11;;;;;;;;;;;;;;;;;;5096768;28;20010;-81
2024/03/31 14:51:36;;;;;;;;;;;;;;;;;;5097067;28;19943;-80
2024/03/31 14:54:01;;;;;;;;;;;;;;;;;;5097529;28;19944;-81
2024/03/31 14:56:26;;;;;;;;;;;;;;;;;;5095769;28;19912;-81
2024/03/31 14:58:52;;;;;;;;;;;;;;;;;;5096600;28;19920;-79
2024/03/31 15:01:17;;;;;;;;;;;;;;;;;;5094703;28;19980;-82
2024/03/31 15:03:42;;;;;;;;;;;;;;;;;;5097998;28;19948;-80
2024/03/31 15:06:07;;;;;;;;;;;;;;;;;;5098003;28;20312;-81
2024/03/31 15:08:33;;;;;;;;;;;;;;;;;;5097298;28;20282;-80
2024/03/31 15:10:58;;;;;;;;;;;;;;;;;;5095788;28;19908;-80
2024/03/31 15:13:23;;;;;;;;;;;;;;;;;;5098122;28;19931;-81
2024/03/31 15:15:51;;;;;;;;;;;;;;;;;;5098735;28;19908;-81
2024/03/31 15:18:16;;;;;;;;;;;;;;;;;;5098124;28;19990;-81
2024/03/31 15:20:44;;;;;;;;;;;;;;;;;;5080158;28;19908;-80
2024/03/31 15:23:09;;;;;;;;;;;;;;;;;;5081374;28;19911;-80
2024/03/31 15:25:34;;;;;;;;;;;;;;;;;;5098964;28;19938;-81
2024/03/31 15:27:59;;;;;;;;;;;;;;;;;;5098611;28;19995;-82
2024/03/31 15:30:24;;;;;;;;;;;;;;;;;;5098515;28;19912;-81
2024/03/31 15:32:49;;;;;;;;;;;;;;;;;;5097169;28;19966;-82
2024/03/31 15:35:14;;;;;;;;;;;;;;;;;;5098265;28;19908;-81
2024/03/31 15:37:39;;;;;;;;;;;;;;;;;;5097372;28;19919;-81
2024/03/31 15:40:04;;;;;;;;;;;;;;;;;;5097401;28;19915;-82
2024/03/31 15:42:30;;;;;;;;;;;;;;;;;;5095478;28;19908;-81
2024/03/31 15:44:55;;;;;;;;;;;;;;;;;;5097723;28;19939;-81
2024/03/31 15:47:20;;;;;;;;;;;;;;;;;;5099992;28;19908;-81
2024/03/31 15:49:45;;;;;;;;;;;;;;;;;;5096626;28;19908;-81
2024/03/31 15:52:10;;;;;;;;;;;;;;;;;;5095628;28;20378;-80
2024/03/31 15:54:35;;;;;;;;;;;;;;;;;;5095279;28;19915;-82
2024/03/31 15:57:02;;;;;;;;;;;;;;;;;;5095833;28;20271;-82
2024/03/31 15:59:28;;;;;;;;;;;;;;;;;;5095711;28;19908;-81
2024/03/31 16:01:53;;;;;;;;;;;;;;;;;;5096409;28;20188;-81
2024/03/31 16:04:18;;;;;;;;;;;;;;;;;;5096214;28;19962;-81
2024/03/31 16:06:43;;;;;;;;;;;;;;;;;;5098029;28;19951;-81
2024/03/31 16:09:08;;;;;;;;;;;;;;;;;;5096814;28;19908;-81
2024/03/31 16:11:33;;;;;;;;;;;;;;;;;;5098795;28;19915;-81
2024/03/31 16:13:58;;;;;;;;;;;;;;;;;;5079320;28;19908;-81
2024/03/31 16:16:24;;;;;;;;;;;;;;;;;;5096771;28;19908;-82
2024/03/31 16:18:50;;;;;;;;;;;;;;;;;;5098673;28;19912;-81
2024/03/31 16:21:15;;;;;;;;;;;;;;;;;;5098067;28;19908;-81
2024/03/31 16:23:40;;;;;;;;;;;;;;;;;;5097633;28;20399;-80
2024/03/31 16:26:05;;;;;;;;;;;;;;;;;;5097617;28;19916;-81
2024/03/31 16:28:30;;;;;;;;;;;;;;;;;;5097046;28;19912;-81
2024/03/31 16:30:55;;;;;;;;;;;;;;;;;;5078873;28;20057;-81